Terminal Aerodrome Forecast
Issued by NWS State College, PA

Home | Current Version | Previous Version | Text Only | Print | Product List | Glossary On
Versions: 1 2 3 4 5 6 7 8 9 10 11 12 13 14 15 16 17 18 19 20 21 22 23 24 25 26 27 28 29 30 31 32 33 34
000
FTUS41 KCTP 230520
TAFIPT
TAF
KIPT 230520Z 2306/2406 00000KT 6SM BR FEW005 BKN040 OVC060
     FM230700 36002KT 1/2SM FG OVC003
     FM231200 VRB04KT 4SM BR BKN025
     FM231500 17006KT P6SM BKN035
     FM232100 14004KT P6SM VCSH OVC050=

USA.gov is the U.S. government's official web portal to all federal, state and local government web resources and services.